^^

Nearby METAR Reports

 

KBJC - Broomfield, Colorado
Distance from station: ESE 4mi, 6km
Updated: 09/19/2017 5:59am
NOT Current
Clear
Clear
 Wind from S
Wind: S 5 mph , 7 km/h
Temperature: 57°F , 14°C
Dew Point: 30°F , -1°C
Humidity: 36%
Barometer: 1007.8 hPa
Clouds: Clear
Visibility: 10 miles , 16 km
2017/09/19 11:59 KBJC 191159Z AUTO 17004KT 10SM CLR 14/M01 A2976 RMK AO2
KBDU - Boulder, Colorado
Distance from station: NNW 8mi, 13km
Updated: 09/19/2017 7:16am
Clear
Clear
 Wind from WSW
Wind: WSW 3 mph , 6 km/h
Temperature: 52°F , 11°C
Dew Point: 34°F , 1°C
Humidity: 50%
Barometer: 1006.8 hPa
Clouds: Clear
Visibility: 10 miles , 16 km
2017/09/19 13:16 KBDU 191316Z AUTO 25003KT 10SM CLR 11/01 A2973 RMK AO2
 
KEIK - Erie, Colorado
Distance from station: NE 8mi, 14km
Updated: 09/19/2017 7:16am
Clear
Clear
 Wind from calm
Wind: Calm
Temperature: 55°F , 13°C
Dew Point: 28°F , -2°C
Humidity: 36%
Barometer: 1008.5 hPa
Clouds: Clear
Visibility: 10 miles , 16 km
2017/09/19 13:16 KEIK 191316Z AUTO 00000KT 10SM CLR 13/M02 A2978 RMK AO2 T01281021
KLMO - Longmont, Colorado
Distance from station: N 17mi, 27km
Updated: 09/19/2017 7:15am
Clear
Clear
 Wind from ENE
Wind: ENE 3 mph , 6 km/h
Temperature: 48°F , 9°C
Dew Point: 39°F , 4°C
Humidity: 71%
Barometer: 1007.1 hPa
Clouds: Clear
Visibility: 10 miles , 16 km
2017/09/19 13:15 KLMO 191315Z AUTO 07003KT 10SM CLR 09/04 A2974 RMK AO2 T00910040
 
KDEN - Denver (DIA), Colorado
Distance from station: E 27mi, 44km
Updated: 09/19/2017 6:53am
Mostly cloudy
Mostly cloudy
 Wind from SSW
Wind: SSW 14 mph , 22 km/h
Temperature: 63°F , 17°C
Dew Point: 21°F , -6°C
Humidity: 20%
Barometer: 1007.1 hPa
Clouds: Mostly cloudy
Visibility: 10 miles , 16 km
Cloud details: Mostly cloudy 22000 ft
2017/09/19 12:53 KDEN 191253Z 20012KT 10SM BKN220 17/M06 A2974 RMK AO2 SLP993 T01721061
KFNL - Ft Collins, Colorado
Distance from station: N 37mi, 59km
Updated: 09/19/2017 5:56am
NOT Current
Clear
Clear
 Wind from varies
Wind: varies 3 mph , 6 km/h
Temperature: 48°F , 9°C
Dew Point: 39°F , 4°C
Humidity: 71%
Barometer: 1006.8 hPa
Clouds: Clear
Visibility: 10 miles , 16 km
2017/09/19 11:56 KFNL 191156Z AUTO VRB03KT 10SM CLR 09/04 A2973 RMK AO2 SLP014 T00940044 10139 20078 57006
 
KGXY - Greeley, Colorado
Distance from station: NE 44mi, 71km
Updated: 09/19/2017 6:56am
Clear
Clear
 Wind from W
Wind: W 5 mph , 7 km/h
Temperature: 46°F , 8°C
Wind Chill: 44°F , 7°C
Dew Point: 41°F , 5°C
Humidity: 82%
Barometer: 1006.4 hPa
Clouds: Clear
Visibility: 10 miles , 16 km
2017/09/19 12:56 KGXY 191256Z AUTO 27004KT 10SM CLR 08/05 A2972 RMK AO2 SLP041 T00780050
KSBS - Steamboat Springs, Colorado
Distance from station: N 99mi, 159km
Updated: 09/19/2017 7:14am
Clear
Clear
 Wind from calm
Wind: Calm
Temperature: 41°F , 5°C
Dew Point: 30°F , -1°C
Humidity: 66%
Barometer: 1011.2 hPa
Clouds: Clear
Visibility: 10 miles , 16 km
2017/09/19 13:14 KSBS 191314Z AUTO 00000KT 10SM CLR 05/M01 A2986 RMK AO1 T00511014
 
KEGE - Eagle Co. Region, Colorado
Distance from station: SW 96mi, 154km
Updated: 09/19/2017 6:56am
Clear
Clear
 Wind from WSW
Wind: WSW 17 mph , 28 km/h, Gust: 24 mph , 39 km/h
Temperature: 63°F , 17°C
Dew Point: 19°F , -7°C
Humidity: 19%
Barometer: 1013.2 hPa
Clouds: Clear
Visibility: 10 miles , 16 km
2017/09/19 12:56 KEGE 191256Z 24015G21KT 10SM CLR 17/M07 A2992 RMK AO2 PK WND 24032/1205 SLP065 T01671067 $
KGJT - Grand Junction, Colorado
Distance from station: WSW 187mi, 302km
Updated: 09/19/2017 6:53am
Clear
Clear
 Wind from SE
Wind: SE 15 mph , 24 km/h
Temperature: 63°F , 17°C
Dew Point: 25°F , -4°C
Humidity: 24%
Barometer: 1010.5 hPa
Clouds: Clear
Visibility: 10 miles , 16 km
2017/09/19 12:53 KGJT 191253Z 14013KT 10SM CLR 17/M04 A2984 RMK AO2 SLP039 T01671044
 
KDRO - Durango, Colorado
Distance from station: SW 238mi, 383km
Updated: 09/19/2017 6:53am
Clear
Clear
 Wind from N
Wind: N 5 mph , 7 km/h
Temperature: 36°F , 2°C
Wind Chill: 32°F , 0°C
Dew Point: 28°F , -2°C
Humidity: 75%
Barometer: 1019.6 hPa
Clouds: Clear
2017/09/19 12:53 KDRO 191253Z AUTO 01004KT CLR 02/M02 A3011 RMK AO2 SLP148 T00171017
KCYS - Cheyenne, Wyoming
Distance from station: N 86mi, 139km
Updated: 09/19/2017 6:53am
Clear
Clear
 Wind from W
Wind: W 7 mph , 11 km/h
Temperature: 52°F , 11°C
Dew Point: 30°F , -1°C
Humidity: 44%
Barometer: 1008.5 hPa
Clouds: Clear
Visibility: 10 miles , 16 km
2017/09/19 12:53 KCYS 191253Z 26006KT 10SM CLR 11/M01 A2978 RMK AO2 SLP012 T01061011
 
KCOS - Colorado Springs, Colorado
Distance from station: S 74mi, 120km
Updated: 09/19/2017 6:54am
Mostly cloudy
Mostly cloudy
 Wind from varies
Wind: varies 7 mph , 11 km/h
Temperature: 63°F , 17°C
Dew Point: 21°F , -6°C
Humidity: 20%
Barometer: 1011.2 hPa
Clouds: Mostly cloudy
Visibility: 10 miles , 16 km
Cloud details: Few Clouds 20000 ft
Mostly cloudy 25000 ft
2017/09/19 12:54 KCOS 191254Z VRB06KT 10SM FEW200 BKN250 17/M06 A2986 RMK AO2 SLP027 T01721056
KPUB - Pueblo, Colorado
Distance from station: S 119mi, 192km
Updated: 09/19/2017 6:53am
Clear
Clear
 Wind from NNE
Wind: NNE 3 mph , 6 km/h
Temperature: 48°F , 9°C
Dew Point: 30°F , -1°C
Humidity: 50%
Barometer: 1008.5 hPa
Clouds: Clear
Visibility: 10 miles , 16 km
2017/09/19 12:53 KPUB 191253Z 02003KT 10SM CLR 09/M01 A2978 RMK AO2 SLP033 T00941006
 
KLAA - Lamar, Colorado
Distance from station: ESE 184mi, 297km
Updated: 09/19/2017 6:53am
Clear
Clear
 Wind from calm
Wind: Calm
Temperature: 43°F , 6°C
Dew Point: 37°F , 3°C
Humidity: 81%
Barometer: 1006.8 hPa
Clouds: Clear
Visibility: 10 miles , 16 km
2017/09/19 12:53 KLAA 191253Z AUTO 00000KT 10SM CLR 06/03 A2973 RMK AO2 SLP035 T00610033